sensor_id;sensor_type;location;lat;lon;timestamp;P1;durP1;ratioP1;P2;durP2;ratioP2
15035;SDS011;7615;48.574;13.474;2023-06-22T00:01:11;12.30;;;4.32;;
15035;SDS011;7615;48.574;13.474;2023-06-22T00:03:39;8.90;;;3.85;;
15035;SDS011;7615;48.574;13.474;2023-06-22T00:06:06;7.50;;;3.35;;
15035;SDS011;7615;48.574;13.474;2023-06-22T00:08:33;7.55;;;3.88;;
15035;SDS011;7615;48.574;13.474;2023-06-22T00:11:00;5.63;;;3.45;;
15035;SDS011;7615;48.574;13.474;2023-06-22T00:13:27;5.53;;;3.85;;
15035;SDS011;7615;48.574;13.474;2023-06-22T00:15:54;9.25;;;4.25;;
15035;SDS011;7615;48.574;13.474;2023-06-22T00:18:21;6.50;;;4.10;;
15035;SDS011;7615;48.574;13.474;2023-06-22T00:20:54;6.78;;;4.07;;
15035;SDS011;7615;48.574;13.474;2023-06-22T00:23:23;5.78;;;3.70;;
15035;SDS011;7615;48.574;13.474;2023-06-22T00:25:51;5.47;;;3.85;;
15035;SDS011;7615;48.574;13.474;2023-06-22T00:28:18;7.57;;;3.83;;
15035;SDS011;7615;48.574;13.474;2023-06-22T00:30:45;5.47;;;3.75;;
15035;SDS011;7615;48.574;13.474;2023-06-22T00:33:12;7.45;;;3.42;;
15035;SDS011;7615;48.574;13.474;2023-06-22T00:35:41;7.57;;;3.20;;
15035;SDS011;7615;48.574;13.474;2023-06-22T00:38:09;6.53;;;3.47;;
15035;SDS011;7615;48.574;13.474;2023-06-22T00:40:37;7.85;;;3.58;;
15035;SDS011;7615;48.574;13.474;2023-06-22T00:43:04;6.93;;;3.58;;
15035;SDS011;7615;48.574;13.474;2023-06-22T00:45:31;5.40;;;3.67;;
15035;SDS011;7615;48.574;13.474;2023-06-22T00:47:58;4.13;;;3.33;;
15035;SDS011;7615;48.574;13.474;2023-06-22T00:50:26;5.63;;;3.60;;
15035;SDS011;7615;48.574;13.474;2023-06-22T00:52:58;9.60;;;4.43;;
15035;SDS011;7615;48.574;13.474;2023-06-22T00:55:29;6.25;;;3.50;;
15035;SDS011;7615;48.574;13.474;2023-06-22T00:57:56;8.60;;;3.67;;
15035;SDS011;7615;48.574;13.474;2023-06-22T01:00:23;6.95;;;3.35;;
15035;SDS011;7615;48.574;13.474;2023-06-22T01:02:50;8.15;;;3.90;;
15035;SDS011;7615;48.574;13.474;2023-06-22T01:05:19;5.82;;;3.60;;
15035;SDS011;7615;48.574;13.474;2023-06-22T01:07:55;6.45;;;3.95;;
15035;SDS011;7615;48.574;13.474;2023-06-22T01:10:33;9.07;;;4.05;;
15035;SDS011;7615;48.574;13.474;2023-06-22T01:13:06;9.18;;;3.80;;
15035;SDS011;7615;48.574;13.474;2023-06-22T01:15:40;6.95;;;3.72;;
15035;SDS011;7615;48.574;13.474;2023-06-22T01:18:14;8.75;;;3.92;;
15035;SDS011;7615;48.574;13.474;2023-06-22T01:20:41;7.35;;;3.70;;
15035;SDS011;7615;48.574;13.474;2023-06-22T01:23:10;4.95;;;3.17;;
15035;SDS011;7615;48.574;13.474;2023-06-22T01:25:46;9.00;;;3.55;;
15035;SDS011;7615;48.574;13.474;2023-06-22T01:28:23;7.63;;;3.47;;
15035;SDS011;7615;48.574;13.474;2023-06-22T01:31:01;7.78;;;3.70;;
15035;SDS011;7615;48.574;13.474;2023-06-22T01:33:31;6.53;;;3.50;;
15035;SDS011;7615;48.574;13.474;2023-06-22T01:36:00;7.07;;;3.55;;
15035;SDS011;7615;48.574;13.474;2023-06-22T01:38:28;6.97;;;3.75;;
15035;SDS011;7615;48.574;13.474;2023-06-22T01:40:56;8.85;;;3.75;;
15035;SDS011;7615;48.574;13.474;2023-06-22T01:43:23;6.30;;;3.97;;
15035;SDS011;7615;48.574;13.474;2023-06-22T01:45:54;7.43;;;4.18;;
15035;SDS011;7615;48.574;13.474;2023-06-22T01:48:22;5.78;;;3.33;;
15035;SDS011;7615;48.574;13.474;2023-06-22T01:50:50;6.53;;;3.70;;
15035;SDS011;7615;48.574;13.474;2023-06-22T01:53:20;8.80;;;3.47;;
15035;SDS011;7615;48.574;13.474;2023-06-22T01:55:47;5.22;;;3.03;;
15035;SDS011;7615;48.574;13.474;2023-06-22T01:58:17;7.22;;;3.80;;
15035;SDS011;7615;48.574;13.474;2023-06-22T02:00:48;4.90;;;3.38;;
15035;SDS011;7615;48.574;13.474;2023-06-22T02:03:21;5.43;;;3.42;;
15035;SDS011;7615;48.574;13.474;2023-06-22T02:05:54;7.60;;;4.10;;
15035;SDS011;7615;48.574;13.474;2023-06-22T02:08:25;6.68;;;3.55;;
15035;SDS011;7615;48.574;13.474;2023-06-22T02:10:54;5.15;;;3.40;;
15035;SDS011;7615;48.574;13.474;2023-06-22T02:13:23;4.88;;;3.22;;
15035;SDS011;7615;48.574;13.474;2023-06-22T02:15:51;6.25;;;3.47;;
15035;SDS011;7615;48.574;13.474;2023-06-22T02:18:18;4.75;;;3.55;;
15035;SDS011;7615;48.574;13.474;2023-06-22T02:20:47;8.40;;;3.60;;
15035;SDS011;7615;48.574;13.474;2023-06-22T02:23:13;6.43;;;3.38;;
15035;SDS011;7615;48.574;13.474;2023-06-22T02:25:41;9.82;;;3.78;;
15035;SDS011;7615;48.574;13.474;2023-06-22T02:28:09;7.55;;;4.35;;
15035;SDS011;7615;48.574;13.474;2023-06-22T02:30:36;8.93;;;4.22;;
15035;SDS011;7615;48.574;13.474;2023-06-22T02:33:04;6.55;;;3.80;;
15035;SDS011;7615;48.574;13.474;2023-06-22T02:35:33;10.82;;;4.00;;
15035;SDS011;7615;48.574;13.474;2023-06-22T02:38:00;8.23;;;3.58;;
15035;SDS011;7615;48.574;13.474;2023-06-22T02:40:28;5.60;;;4.00;;
15035;SDS011;7615;48.574;13.474;2023-06-22T02:42:56;6.38;;;3.67;;
15035;SDS011;7615;48.574;13.474;2023-06-22T02:45:26;4.97;;;3.30;;
15035;SDS011;7615;48.574;13.474;2023-06-22T02:47:53;8.20;;;3.90;;
15035;SDS011;7615;48.574;13.474;2023-06-22T02:50:21;7.43;;;3.80;;
15035;SDS011;7615;48.574;13.474;2023-06-22T02:52:49;7.65;;;3.45;;
15035;SDS011;7615;48.574;13.474;2023-06-22T02:55:16;9.07;;;4.10;;
15035;SDS011;7615;48.574;13.474;2023-06-22T02:57:43;7.97;;;3.60;;
15035;SDS011;7615;48.574;13.474;2023-06-22T03:00:12;6.95;;;3.20;;
15035;SDS011;7615;48.574;13.474;2023-06-22T03:02:43;6.38;;;3.53;;
15035;SDS011;7615;48.574;13.474;2023-06-22T03:05:10;4.95;;;3.42;;
15035;SDS011;7615;48.574;13.474;2023-06-22T03:07:39;5.05;;;3.10;;
15035;SDS011;7615;48.574;13.474;2023-06-22T03:10:08;6.13;;;3.17;;
15035;SDS011;7615;48.574;13.474;2023-06-22T03:12:36;9.43;;;3.55;;
15035;SDS011;7615;48.574;13.474;2023-06-22T03:15:04;7.10;;;3.47;;
15035;SDS011;7615;48.574;13.474;2023-06-22T03:17:32;9.20;;;3.80;;
15035;SDS011;7615;48.574;13.474;2023-06-22T03:19:59;7.18;;;3.53;;
15035;SDS011;7615;48.574;13.474;2023-06-22T03:22:26;5.47;;;3.40;;
15035;SDS011;7615;48.574;13.474;2023-06-22T03:24:53;5.63;;;3.13;;
15035;SDS011;7615;48.574;13.474;2023-06-22T03:27:21;7.28;;;3.00;;
15035;SDS011;7615;48.574;13.474;2023-06-22T03:29:48;6.65;;;3.65;;
15035;SDS011;7615;48.574;13.474;2023-06-22T03:32:15;7.57;;;4.10;;
15035;SDS011;7615;48.574;13.474;2023-06-22T03:34:42;5.22;;;3.75;;
15035;SDS011;7615;48.574;13.474;2023-06-22T03:37:12;6.60;;;3.40;;
15035;SDS011;7615;48.574;13.474;2023-06-22T03:39:39;10.18;;;5.05;;
15035;SDS011;7615;48.574;13.474;2023-06-22T03:42:06;5.60;;;3.75;;
15035;SDS011;7615;48.574;13.474;2023-06-22T03:44:37;6.35;;;3.80;;
15035;SDS011;7615;48.574;13.474;2023-06-22T03:47:04;7.93;;;4.47;;
15035;SDS011;7615;48.574;13.474;2023-06-22T03:49:32;6.20;;;3.83;;
15035;SDS011;7615;48.574;13.474;2023-06-22T03:51:59;5.55;;;3.30;;
15035;SDS011;7615;48.574;13.474;2023-06-22T03:54:27;5.93;;;3.75;;
15035;SDS011;7615;48.574;13.474;2023-06-22T03:56:54;4.65;;;3.72;;
15035;SDS011;7615;48.574;13.474;2023-06-22T03:59:22;6.30;;;3.55;;
15035;SDS011;7615;48.574;13.474;2023-06-22T04:01:51;5.63;;;3.90;;
15035;SDS011;7615;48.574;13.474;2023-06-22T04:04:17;8.73;;;3.53;;
15035;SDS011;7615;48.574;13.474;2023-06-22T04:06:44;7.53;;;3.92;;
15035;SDS011;7615;48.574;13.474;2023-06-22T04:09:11;5.70;;;3.53;;
15035;SDS011;7615;48.574;13.474;2023-06-22T04:11:38;5.95;;;3.58;;
15035;SDS011;7615;48.574;13.474;2023-06-22T04:14:05;5.70;;;3.85;;
15035;SDS011;7615;48.574;13.474;2023-06-22T04:16:32;7.07;;;3.63;;
15035;SDS011;7615;48.574;13.474;2023-06-22T04:19:01;4.65;;;3.63;;
15035;SDS011;7615;48.574;13.474;2023-06-22T04:21:27;6.30;;;3.67;;
15035;SDS011;7615;48.574;13.474;2023-06-22T04:23:54;6.82;;;3.60;;
15035;SDS011;7615;48.574;13.474;2023-06-22T04:26:21;7.22;;;4.13;;
15035;SDS011;7615;48.574;13.474;2023-06-22T04:28:48;6.78;;;4.43;;
15035;SDS011;7615;48.574;13.474;2023-06-22T04:31:16;6.28;;;4.28;;
15035;SDS011;7615;48.574;13.474;2023-06-22T04:33:44;6.22;;;4.50;;
15035;SDS011;7615;48.574;13.474;2023-06-22T04:36:12;6.07;;;3.80;;
15035;SDS011;7615;48.574;13.474;2023-06-22T04:38:39;5.20;;;3.85;;
15035;SDS011;7615;48.574;13.474;2023-06-22T04:41:07;11.43;;;4.05;;
15035;SDS011;7615;48.574;13.474;2023-06-22T04:43:39;7.47;;;3.90;;
15035;SDS011;7615;48.574;13.474;2023-06-22T04:46:06;5.50;;;4.07;;
15035;SDS011;7615;48.574;13.474;2023-06-22T04:48:33;7.32;;;4.05;;
15035;SDS011;7615;48.574;13.474;2023-06-22T04:51:00;11.80;;;4.07;;
15035;SDS011;7615;48.574;13.474;2023-06-22T04:53:30;8.30;;;4.03;;
15035;SDS011;7615;48.574;13.474;2023-06-22T04:55:57;4.70;;;3.92;;
15035;SDS011;7615;48.574;13.474;2023-06-22T04:58:24;7.47;;;4.28;;
15035;SDS011;7615;48.574;13.474;2023-06-22T05:00:53;5.63;;;4.30;;
15035;SDS011;7615;48.574;13.474;2023-06-22T05:03:22;5.55;;;3.80;;
15035;SDS011;7615;48.574;13.474;2023-06-22T05:05:50;7.07;;;4.10;;
15035;SDS011;7615;48.574;13.474;2023-06-22T05:08:18;7.65;;;3.80;;
15035;SDS011;7615;48.574;13.474;2023-06-22T05:10:46;8.23;;;3.60;;
15035;SDS011;7615;48.574;13.474;2023-06-22T05:13:13;7.85;;;3.95;;
15035;SDS011;7615;48.574;13.474;2023-06-22T05:15:40;5.20;;;3.72;;
15035;SDS011;7615;48.574;13.474;2023-06-22T05:18:07;6.88;;;3.60;;
15035;SDS011;7615;48.574;13.474;2023-06-22T05:20:34;8.13;;;4.10;;
15035;SDS011;7615;48.574;13.474;2023-06-22T05:23:01;8.43;;;4.00;;
15035;SDS011;7615;48.574;13.474;2023-06-22T05:25:28;9.57;;;4.57;;
15035;SDS011;7615;48.574;13.474;2023-06-22T05:27:58;6.97;;;4.07;;
15035;SDS011;7615;48.574;13.474;2023-06-22T05:30:25;6.05;;;4.13;;
15035;SDS011;7615;48.574;13.474;2023-06-22T05:32:53;8.38;;;4.00;;
15035;SDS011;7615;48.574;13.474;2023-06-22T05:35:20;7.05;;;3.95;;
15035;SDS011;7615;48.574;13.474;2023-06-22T05:37:47;9.80;;;3.90;;
15035;SDS011;7615;48.574;13.474;2023-06-22T05:40:14;12.02;;;4.30;;
15035;SDS011;7615;48.574;13.474;2023-06-22T05:42:41;8.85;;;4.05;;
15035;SDS011;7615;48.574;13.474;2023-06-22T05:45:09;8.30;;;3.97;;
15035;SDS011;7615;48.574;13.474;2023-06-22T05:47:36;5.00;;;4.30;;
15035;SDS011;7615;48.574;13.474;2023-06-22T05:50:04;8.55;;;4.20;;
15035;SDS011;7615;48.574;13.474;2023-06-22T05:52:33;6.18;;;4.25;;
15035;SDS011;7615;48.574;13.474;2023-06-22T05:55:01;7.05;;;3.90;;
15035;SDS011;7615;48.574;13.474;2023-06-22T05:57:28;8.65;;;3.88;;
15035;SDS011;7615;48.574;13.474;2023-06-22T05:59:55;8.02;;;4.20;;
15035;SDS011;7615;48.574;13.474;2023-06-22T06:02:23;7.03;;;3.92;;
15035;SDS011;7615;48.574;13.474;2023-06-22T06:04:50;6.75;;;3.95;;
15035;SDS011;7615;48.574;13.474;2023-06-22T06:07:17;6.20;;;3.90;;
15035;SDS011;7615;48.574;13.474;2023-06-22T06:09:44;9.30;;;4.35;;
15035;SDS011;7615;48.574;13.474;2023-06-22T06:12:13;7.18;;;4.25;;
15035;SDS011;7615;48.574;13.474;2023-06-22T06:14:39;9.85;;;4.28;;
15035;SDS011;7615;48.574;13.474;2023-06-22T06:17:06;8.65;;;4.68;;
15035;SDS011;7615;48.574;13.474;2023-06-22T06:19:35;6.45;;;4.05;;
15035;SDS011;7615;48.574;13.474;2023-06-22T06:22:02;6.57;;;4.40;;
15035;SDS011;7615;48.574;13.474;2023-06-22T06:24:29;8.35;;;4.15;;
15035;SDS011;7615;48.574;13.474;2023-06-22T06:26:56;7.00;;;4.18;;
15035;SDS011;7615;48.574;13.474;2023-06-22T06:29:23;7.28;;;4.10;;
15035;SDS011;7615;48.574;13.474;2023-06-22T06:31:49;6.25;;;4.30;;
15035;SDS011;7615;48.574;13.474;2023-06-22T06:34:16;10.93;;;4.50;;
15035;SDS011;7615;48.574;13.474;2023-06-22T06:36:45;7.60;;;4.22;;
15035;SDS011;7615;48.574;13.474;2023-06-22T06:39:12;9.93;;;4.82;;
15035;SDS011;7615;48.574;13.474;2023-06-22T06:41:41;9.85;;;4.00;;
15035;SDS011;7615;48.574;13.474;2023-06-22T06:44:08;8.02;;;4.13;;
15035;SDS011;7615;48.574;13.474;2023-06-22T06:46:34;8.13;;;5.03;;
15035;SDS011;7615;48.574;13.474;2023-06-22T06:49:01;8.90;;;4.22;;
15035;SDS011;7615;48.574;13.474;2023-06-22T06:51:28;7.65;;;4.55;;
15035;SDS011;7615;48.574;13.474;2023-06-22T06:53:57;8.63;;;4.38;;
15035;SDS011;7615;48.574;13.474;2023-06-22T06:56:24;5.38;;;4.32;;
15035;SDS011;7615;48.574;13.474;2023-06-22T06:58:51;8.23;;;4.25;;
15035;SDS011;7615;48.574;13.474;2023-06-22T07:01:19;8.55;;;4.45;;
15035;SDS011;7615;48.574;13.474;2023-06-22T07:03:46;6.75;;;4.38;;
15035;SDS011;7615;48.574;13.474;2023-06-22T07:06:13;6.50;;;3.83;;
15035;SDS011;7615;48.574;13.474;2023-06-22T07:08:41;7.70;;;3.95;;
15035;SDS011;7615;48.574;13.474;2023-06-22T07:11:09;12.05;;;4.65;;
15035;SDS011;7615;48.574;13.474;2023-06-22T07:13:36;5.90;;;4.15;;
15035;SDS011;7615;48.574;13.474;2023-06-22T07:16:03;7.32;;;4.45;;
15035;SDS011;7615;48.574;13.474;2023-06-22T07:18:30;8.07;;;4.10;;
15035;SDS011;7615;48.574;13.474;2023-06-22T07:20:57;8.60;;;5.00;;
15035;SDS011;7615;48.574;13.474;2023-06-22T07:23:24;10.80;;;5.03;;
15035;SDS011;7615;48.574;13.474;2023-06-22T07:25:51;8.88;;;4.38;;
15035;SDS011;7615;48.574;13.474;2023-06-22T07:28:21;6.13;;;4.03;;
15035;SDS011;7615;48.574;13.474;2023-06-22T07:30:48;8.15;;;4.30;;
15035;SDS011;7615;48.574;13.474;2023-06-22T07:33:16;6.35;;;3.85;;
15035;SDS011;7615;48.574;13.474;2023-06-22T07:35:43;8.18;;;4.90;;
15035;SDS011;7615;48.574;13.474;2023-06-22T07:38:10;10.13;;;4.72;;
15035;SDS011;7615;48.574;13.474;2023-06-22T07:40:37;5.80;;;4.13;;
15035;SDS011;7615;48.574;13.474;2023-06-22T07:43:04;6.20;;;4.43;;
15035;SDS011;7615;48.574;13.474;2023-06-22T07:45:32;5.90;;;4.55;;
15035;SDS011;7615;48.574;13.474;2023-06-22T07:48:00;7.22;;;4.40;;
15035;SDS011;7615;48.574;13.474;2023-06-22T07:50:26;5.55;;;4.00;;
15035;SDS011;7615;48.574;13.474;2023-06-22T07:52:53;11.43;;;5.03;;
15035;SDS011;7615;48.574;13.474;2023-06-22T07:55:20;5.05;;;4.40;;
15035;SDS011;7615;48.574;13.474;2023-06-22T07:57:48;8.95;;;4.47;;
15035;SDS011;7615;48.574;13.474;2023-06-22T08:00:17;9.82;;;4.18;;
15035;SDS011;7615;48.574;13.474;2023-06-22T08:02:46;8.43;;;4.85;;
15035;SDS011;7615;48.574;13.474;2023-06-22T08:05:14;6.15;;;4.07;;
15035;SDS011;7615;48.574;13.474;2023-06-22T08:07:41;5.82;;;4.25;;
15035;SDS011;7615;48.574;13.474;2023-06-22T08:10:10;7.15;;;4.28;;
15035;SDS011;7615;48.574;13.474;2023-06-22T08:12:37;8.85;;;4.40;;
15035;SDS011;7615;48.574;13.474;2023-06-22T08:15:05;7.57;;;4.57;;
15035;SDS011;7615;48.574;13.474;2023-06-22T08:17:34;8.32;;;4.38;;
15035;SDS011;7615;48.574;13.474;2023-06-22T08:20:04;5.22;;;4.15;;
15035;SDS011;7615;48.574;13.474;2023-06-22T08:22:34;6.57;;;4.25;;
15035;SDS011;7615;48.574;13.474;2023-06-22T08:25:03;8.98;;;4.53;;
15035;SDS011;7615;48.574;13.474;2023-06-22T08:27:31;6.07;;;4.18;;
15035;SDS011;7615;48.574;13.474;2023-06-22T08:29:58;5.43;;;3.85;;
15035;SDS011;7615;48.574;13.474;2023-06-22T08:32:25;8.63;;;4.30;;
15035;SDS011;7615;48.574;13.474;2023-06-22T08:34:52;8.38;;;4.43;;
15035;SDS011;7615;48.574;13.474;2023-06-22T08:37:20;7.55;;;3.90;;
15035;SDS011;7615;48.574;13.474;2023-06-22T08:39:50;4.68;;;3.70;;
15035;SDS011;7615;48.574;13.474;2023-06-22T08:42:16;6.13;;;4.10;;
15035;SDS011;7615;48.574;13.474;2023-06-22T08:44:43;9.27;;;4.13;;
15035;SDS011;7615;48.574;13.474;2023-06-22T08:47:10;4.97;;;3.78;;
15035;SDS011;7615;48.574;13.474;2023-06-22T08:49:37;6.13;;;3.80;;
15035;SDS011;7615;48.574;13.474;2023-06-22T08:52:04;8.65;;;4.38;;
15035;SDS011;7615;48.574;13.474;2023-06-22T08:54:34;6.20;;;4.68;;
15035;SDS011;7615;48.574;13.474;2023-06-22T08:57:01;5.38;;;3.97;;
15035;SDS011;7615;48.574;13.474;2023-06-22T08:59:28;9.85;;;4.38;;
15035;SDS011;7615;48.574;13.474;2023-06-22T09:01:55;5.28;;;3.97;;
15035;SDS011;7615;48.574;13.474;2023-06-22T09:04:22;5.78;;;4.03;;
15035;SDS011;7615;48.574;13.474;2023-06-22T09:06:48;7.45;;;4.20;;
15035;SDS011;7615;48.574;13.474;2023-06-22T09:09:17;8.68;;;4.88;;
15035;SDS011;7615;48.574;13.474;2023-06-22T09:11:46;7.75;;;4.25;;
15035;SDS011;7615;48.574;13.474;2023-06-22T09:14:13;5.32;;;3.75;;
15035;SDS011;7615;48.574;13.474;2023-06-22T09:16:40;7.53;;;4.30;;
15035;SDS011;7615;48.574;13.474;2023-06-22T09:19:07;8.40;;;3.75;;
15035;SDS011;7615;48.574;13.474;2023-06-22T09:21:33;7.10;;;4.05;;
15035;SDS011;7615;48.574;13.474;2023-06-22T09:24:00;7.65;;;3.92;;
15035;SDS011;7615;48.574;13.474;2023-06-22T09:26:28;6.72;;;4.10;;
15035;SDS011;7615;48.574;13.474;2023-06-22T09:28:56;6.55;;;3.80;;
15035;SDS011;7615;48.574;13.474;2023-06-22T09:31:23;7.85;;;4.13;;
15035;SDS011;7615;48.574;13.474;2023-06-22T09:33:51;5.85;;;4.03;;
15035;SDS011;7615;48.574;13.474;2023-06-22T09:36:19;10.52;;;4.03;;
15035;SDS011;7615;48.574;13.474;2023-06-22T09:38:47;7.82;;;3.67;;
15035;SDS011;7615;48.574;13.474;2023-06-22T09:41:14;6.88;;;3.50;;
15035;SDS011;7615;48.574;13.474;2023-06-22T09:43:41;8.93;;;3.78;;
15035;SDS011;7615;48.574;13.474;2023-06-22T09:46:10;13.23;;;4.03;;
15035;SDS011;7615;48.574;13.474;2023-06-22T09:48:37;5.43;;;3.78;;
15035;SDS011;7615;48.574;13.474;2023-06-22T09:51:03;7.22;;;3.83;;
15035;SDS011;7615;48.574;13.474;2023-06-22T09:53:30;7.97;;;3.75;;
15035;SDS011;7615;48.574;13.474;2023-06-22T09:55:57;5.72;;;4.10;;
15035;SDS011;7615;48.574;13.474;2023-06-22T09:58:25;10.02;;;4.25;;
15035;SDS011;7615;48.574;13.474;2023-06-22T10:00:52;6.13;;;4.05;;
15035;SDS011;7615;48.574;13.474;2023-06-22T10:03:20;10.73;;;3.95;;
15035;SDS011;7615;48.574;13.474;2023-06-22T10:05:48;13.27;;;4.10;;
15035;SDS011;7615;48.574;13.474;2023-06-22T10:08:15;12.50;;;4.93;;
15035;SDS011;7615;48.574;13.474;2023-06-22T10:10:41;11.57;;;4.35;;
15035;SDS011;7615;48.574;13.474;2023-06-22T10:13:09;8.32;;;3.85;;
15035;SDS011;7615;48.574;13.474;2023-06-22T10:15:36;10.50;;;4.05;;
15035;SDS011;7615;48.574;13.474;2023-06-22T10:18:04;7.50;;;4.10;;
15035;SDS011;7615;48.574;13.474;2023-06-22T10:20:32;9.05;;;5.03;;
15035;SDS011;7615;48.574;13.474;2023-06-22T10:22:59;10.98;;;4.40;;
15035;SDS011;7615;48.574;13.474;2023-06-22T10:25:26;8.10;;;3.97;;
15035;SDS011;7615;48.574;13.474;2023-06-22T10:27:53;9.98;;;3.83;;
15035;SDS011;7615;48.574;13.474;2023-06-22T10:30:20;7.97;;;3.90;;
15035;SDS011;7615;48.574;13.474;2023-06-22T10:32:48;11.68;;;4.05;;
15035;SDS011;7615;48.574;13.474;2023-06-22T10:35:15;8.45;;;4.20;;
15035;SDS011;7615;48.574;13.474;2023-06-22T10:37:44;10.43;;;4.55;;
15035;SDS011;7615;48.574;13.474;2023-06-22T10:40:12;10.88;;;4.07;;
15035;SDS011;7615;48.574;13.474;2023-06-22T10:42:41;9.30;;;4.05;;
15035;SDS011;7615;48.574;13.474;2023-06-22T10:45:08;9.65;;;4.20;;
15035;SDS011;7615;48.574;13.474;2023-06-22T10:47:35;9.00;;;3.70;;
15035;SDS011;7615;48.574;13.474;2023-06-22T10:50:02;6.32;;;3.72;;
15035;SDS011;7615;48.574;13.474;2023-06-22T10:52:30;10.75;;;4.78;;
15035;SDS011;7615;48.574;13.474;2023-06-22T10:54:58;11.05;;;4.00;;
15035;SDS011;7615;48.574;13.474;2023-06-22T10:57:25;5.05;;;3.75;;
15035;SDS011;7615;48.574;13.474;2023-06-22T10:59:52;7.22;;;4.07;;
15035;SDS011;7615;48.574;13.474;2023-06-22T11:02:19;11.15;;;4.80;;
15035;SDS011;7615;48.574;13.474;2023-06-22T11:04:45;9.45;;;4.13;;
15035;SDS011;7615;48.574;13.474;2023-06-22T11:07:13;14.55;;;4.68;;
15035;SDS011;7615;48.574;13.474;2023-06-22T11:09:39;10.23;;;4.57;;
15035;SDS011;7615;48.574;13.474;2023-06-22T11:12:08;12.82;;;4.20;;
15035;SDS011;7615;48.574;13.474;2023-06-22T11:14:35;9.20;;;4.07;;
15035;SDS011;7615;48.574;13.474;2023-06-22T11:17:02;8.88;;;4.20;;
15035;SDS011;7615;48.574;13.474;2023-06-22T11:19:29;14.35;;;4.60;;
15035;SDS011;7615;48.574;13.474;2023-06-22T11:21:56;11.65;;;4.57;;
15035;SDS011;7615;48.574;13.474;2023-06-22T11:24:23;8.80;;;4.28;;
15035;SDS011;7615;48.574;13.474;2023-06-22T11:26:49;6.80;;;3.90;;
15035;SDS011;7615;48.574;13.474;2023-06-22T11:29:18;9.52;;;4.38;;
15035;SDS011;7615;48.574;13.474;2023-06-22T11:31:46;8.18;;;4.07;;
15035;SDS011;7615;48.574;13.474;2023-06-22T11:34:12;12.77;;;4.20;;
15035;SDS011;7615;48.574;13.474;2023-06-22T11:36:39;10.93;;;4.50;;
15035;SDS011;7615;48.574;13.474;2023-06-22T11:39:07;9.85;;;4.38;;
15035;SDS011;7615;48.574;13.474;2023-06-22T11:41:35;9.80;;;4.40;;
15035;SDS011;7615;48.574;13.474;2023-06-22T11:44:02;8.48;;;4.20;;
15035;SDS011;7615;48.574;13.474;2023-06-22T11:46:31;11.10;;;4.55;;
15035;SDS011;7615;48.574;13.474;2023-06-22T11:49:00;14.32;;;4.72;;
15035;SDS011;7615;48.574;13.474;2023-06-22T11:51:26;10.50;;;4.25;;
15035;SDS011;7615;48.574;13.474;2023-06-22T11:53:56;15.80;;;4.80;;
15035;SDS011;7615;48.574;13.474;2023-06-22T11:56:23;16.20;;;4.30;;
15035;SDS011;7615;48.574;13.474;2023-06-22T11:58:50;9.35;;;4.13;;
15035;SDS011;7615;48.574;13.474;2023-06-22T12:01:18;11.98;;;4.40;;
15035;SDS011;7615;48.574;13.474;2023-06-22T12:03:47;11.77;;;4.75;;
15035;SDS011;7615;48.574;13.474;2023-06-22T12:06:14;11.18;;;4.15;;
15035;SDS011;7615;48.574;13.474;2023-06-22T12:08:41;8.35;;;4.15;;
15035;SDS011;7615;48.574;13.474;2023-06-22T12:11:08;12.38;;;4.40;;
15035;SDS011;7615;48.574;13.474;2023-06-22T12:13:35;12.43;;;4.45;;
15035;SDS011;7615;48.574;13.474;2023-06-22T12:16:01;11.00;;;4.47;;
15035;SDS011;7615;48.574;13.474;2023-06-22T12:18:28;17.02;;;4.60;;
15035;SDS011;7615;48.574;13.474;2023-06-22T12:20:57;12.63;;;4.40;;
15035;SDS011;7615;48.574;13.474;2023-06-22T12:23:24;12.77;;;4.05;;
15035;SDS011;7615;48.574;13.474;2023-06-22T12:25:51;8.63;;;4.57;;
15035;SDS011;7615;48.574;13.474;2023-06-22T12:28:18;15.20;;;4.85;;
15035;SDS011;7615;48.574;13.474;2023-06-22T12:30:45;15.40;;;4.50;;
15035;SDS011;7615;48.574;13.474;2023-06-22T12:33:12;17.50;;;5.15;;
15035;SDS011;7615;48.574;13.474;2023-06-22T12:35:39;9.68;;;4.57;;
15035;SDS011;7615;48.574;13.474;2023-06-22T12:38:07;12.07;;;4.28;;
15035;SDS011;7615;48.574;13.474;2023-06-22T12:40:34;10.85;;;4.45;;
15035;SDS011;7615;48.574;13.474;2023-06-22T12:43:01;10.25;;;4.47;;
15035;SDS011;7615;48.574;13.474;2023-06-22T12:45:28;13.10;;;4.20;;
15035;SDS011;7615;48.574;13.474;2023-06-22T12:47:58;12.05;;;4.50;;
15035;SDS011;7615;48.574;13.474;2023-06-22T12:50:25;9.73;;;4.50;;
15035;SDS011;7615;48.574;13.474;2023-06-22T12:52:53;10.25;;;4.70;;
15035;SDS011;7615;48.574;13.474;2023-06-22T12:55:22;13.98;;;4.97;;
15035;SDS011;7615;48.574;13.474;2023-06-22T12:57:49;9.30;;;4.75;;
15035;SDS011;7615;48.574;13.474;2023-06-22T13:00:16;16.25;;;4.47;;
15035;SDS011;7615;48.574;13.474;2023-06-22T13:02:43;17.23;;;4.40;;
15035;SDS011;7615;48.574;13.474;2023-06-22T13:05:10;11.40;;;4.38;;
15035;SDS011;7615;48.574;13.474;2023-06-22T13:07:37;13.43;;;4.72;;
15035;SDS011;7615;48.574;13.474;2023-06-22T13:10:04;17.80;;;4.95;;
15035;SDS011;7615;48.574;13.474;2023-06-22T13:12:34;13.30;;;4.97;;
15035;SDS011;7615;48.574;13.474;2023-06-22T13:15:01;16.52;;;4.57;;
15035;SDS011;7615;48.574;13.474;2023-06-22T13:17:28;20.17;;;4.38;;
15035;SDS011;7615;48.574;13.474;2023-06-22T13:19:55;14.02;;;4.28;;
15035;SDS011;7615;48.574;13.474;2023-06-22T13:22:29;18.00;;;4.32;;
15035;SDS011;7615;48.574;13.474;2023-06-22T13:24:57;16.25;;;4.78;;
15035;SDS011;7615;48.574;13.474;2023-06-22T13:27:25;13.27;;;4.47;;
15035;SDS011;7615;48.574;13.474;2023-06-22T13:29:53;9.13;;;4.13;;
15035;SDS011;7615;48.574;13.474;2023-06-22T13:32:20;13.27;;;4.72;;
15035;SDS011;7615;48.574;13.474;2023-06-22T13:34:47;14.63;;;4.15;;
15035;SDS011;7615;48.574;13.474;2023-06-22T13:37:14;19.45;;;4.53;;
15035;SDS011;7615;48.574;13.474;2023-06-22T13:39:41;16.63;;;4.13;;
15035;SDS011;7615;48.574;13.474;2023-06-22T13:42:08;12.10;;;4.10;;
15035;SDS011;7615;48.574;13.474;2023-06-22T13:44:35;17.20;;;4.32;;
15035;SDS011;7615;48.574;13.474;2023-06-22T13:47:03;11.90;;;4.22;;
15035;SDS011;7615;48.574;13.474;2023-06-22T13:49:31;11.20;;;4.00;;
15035;SDS011;7615;48.574;13.474;2023-06-22T13:51:58;14.38;;;4.55;;
15035;SDS011;7615;48.574;13.474;2023-06-22T13:54:25;12.50;;;4.70;;
15035;SDS011;7615;48.574;13.474;2023-06-22T13:56:51;13.98;;;4.40;;
15035;SDS011;7615;48.574;13.474;2023-06-22T13:59:18;17.35;;;4.63;;
15035;SDS011;7615;48.574;13.474;2023-06-22T14:01:46;16.65;;;4.80;;
15035;SDS011;7615;48.574;13.474;2023-06-22T14:04:14;13.57;;;4.00;;
15035;SDS011;7615;48.574;13.474;2023-06-22T14:06:41;14.77;;;4.43;;
15035;SDS011;7615;48.574;13.474;2023-06-22T14:09:08;11.10;;;4.60;;
15035;SDS011;7615;48.574;13.474;2023-06-22T14:11:34;15.35;;;4.15;;
15035;SDS011;7615;48.574;13.474;2023-06-22T14:14:02;12.52;;;4.55;;
15035;SDS011;7615;48.574;13.474;2023-06-22T14:16:29;11.02;;;4.53;;
15035;SDS011;7615;48.574;13.474;2023-06-22T14:18:56;12.07;;;4.25;;
15035;SDS011;7615;48.574;13.474;2023-06-22T14:21:25;13.43;;;4.70;;
15035;SDS011;7615;48.574;13.474;2023-06-22T14:23:52;8.38;;;4.32;;
15035;SDS011;7615;48.574;13.474;2023-06-22T14:26:19;10.10;;;4.25;;
15035;SDS011;7615;48.574;13.474;2023-06-22T14:28:47;15.80;;;4.93;;
15035;SDS011;7615;48.574;13.474;2023-06-22T14:31:15;8.80;;;4.45;;
15035;SDS011;7615;48.574;13.474;2023-06-22T14:33:43;9.80;;;5.00;;
15035;SDS011;7615;48.574;13.474;2023-06-22T14:36:16;14.30;;;4.97;;
15035;SDS011;7615;48.574;13.474;2023-06-22T14:38:45;18.20;;;5.07;;
15035;SDS011;7615;48.574;13.474;2023-06-22T14:41:12;11.27;;;4.13;;
15035;SDS011;7615;48.574;13.474;2023-06-22T14:43:43;12.88;;;4.30;;
15035;SDS011;7615;48.574;13.474;2023-06-22T14:46:11;11.43;;;4.75;;